sensor_id;sensor_type;location;lat;lon;timestamp;P1;durP1;ratioP1;P2;durP2;ratioP2
54143;SDS011;40050;47.324;18.792;2024-03-02T00:01:34;34.70;;;21.89;;
54143;SDS011;40050;47.324;18.792;2024-03-02T00:03:36;36.38;;;21.59;;
54143;SDS011;40050;47.324;18.792;2024-03-02T00:05:36;36.62;;;21.87;;
54143;SDS011;40050;47.324;18.792;2024-03-02T00:07:41;35.96;;;21.38;;
54143;SDS011;40050;47.324;18.792;2024-03-02T00:09:40;37.48;;;22.26;;
54143;SDS011;40050;47.324;18.792;2024-03-02T00:11:41;39.00;;;23.32;;
54143;SDS011;40050;47.324;18.792;2024-03-02T00:13:44;37.81;;;22.35;;
54143;SDS011;40050;47.324;18.792;2024-03-02T00:16:02;38.35;;;21.86;;
54143;SDS011;40050;47.324;18.792;2024-03-02T00:18:03;39.23;;;22.34;;
54143;SDS011;40050;47.324;18.792;2024-03-02T00:20:04;37.27;;;22.05;;
54143;SDS011;40050;47.324;18.792;2024-03-02T00:22:05;36.29;;;21.57;;
54143;SDS011;40050;47.324;18.792;2024-03-02T00:24:07;37.23;;;22.45;;
54143;SDS011;40050;47.324;18.792;2024-03-02T00:26:09;36.17;;;21.97;;
54143;SDS011;40050;47.324;18.792;2024-03-02T00:28:13;38.86;;;21.28;;
54143;SDS011;40050;47.324;18.792;2024-03-02T00:32:13;36.76;;;21.77;;
54143;SDS011;40050;47.324;18.792;2024-03-02T00:34:15;38.68;;;22.65;;
54143;SDS011;40050;47.324;18.792;2024-03-02T00:36:21;35.46;;;22.17;;
54143;SDS011;40050;47.324;18.792;2024-03-02T00:38:17;38.09;;;21.49;;
54143;SDS011;40050;47.324;18.792;2024-03-02T00:40:20;36.07;;;22.07;;
54143;SDS011;40050;47.324;18.792;2024-03-02T00:42:21;37.52;;;22.07;;
54143;SDS011;40050;47.324;18.792;2024-03-02T00:44:31;40.59;;;22.65;;
54143;SDS011;40050;47.324;18.792;2024-03-02T00:46:38;37.30;;;21.86;;
54143;SDS011;40050;47.324;18.792;2024-03-02T00:48:33;39.69;;;22.44;;
54143;SDS011;40050;47.324;18.792;2024-03-02T00:50:35;38.84;;;22.14;;
54143;SDS011;40050;47.324;18.792;2024-03-02T00:52:36;41.34;;;22.91;;
54143;SDS011;40050;47.324;18.792;2024-03-02T00:54:38;36.09;;;21.54;;
54143;SDS011;40050;47.324;18.792;2024-03-02T00:56:42;38.62;;;21.74;;
54143;SDS011;40050;47.324;18.792;2024-03-02T00:58:43;37.28;;;22.33;;
54143;SDS011;40050;47.324;18.792;2024-03-02T01:00:44;42.08;;;22.82;;
54143;SDS011;40050;47.324;18.792;2024-03-02T01:02:45;38.57;;;22.92;;
54143;SDS011;40050;47.324;18.792;2024-03-02T01:04:46;38.56;;;22.92;;
54143;SDS011;40050;47.324;18.792;2024-03-02T01:06:47;37.12;;;23.11;;
54143;SDS011;40050;47.324;18.792;2024-03-02T01:08:48;33.36;;;21.56;;
54143;SDS011;40050;47.324;18.792;2024-03-02T01:10:49;39.23;;;22.34;;
54143;SDS011;40050;47.324;18.792;2024-03-02T01:12:50;39.58;;;23.22;;
54143;SDS011;40050;47.324;18.792;2024-03-02T01:14:51;44.19;;;23.41;;
54143;SDS011;40050;47.324;18.792;2024-03-02T01:16:52;45.29;;;24.39;;
54143;SDS011;40050;47.324;18.792;2024-03-02T01:18:53;43.40;;;25.18;;
54143;SDS011;40050;47.324;18.792;2024-03-02T01:20:54;41.78;;;24.10;;
54143;SDS011;40050;47.324;18.792;2024-03-02T01:22:55;38.54;;;22.25;;
54143;SDS011;40050;47.324;18.792;2024-03-02T01:24:56;39.64;;;22.55;;
54143;SDS011;40050;47.324;18.792;2024-03-02T01:26:56;44.82;;;22.75;;
54143;SDS011;40050;47.324;18.792;2024-03-02T01:28:57;37.34;;;21.97;;
54143;SDS011;40050;47.324;18.792;2024-03-02T01:30:58;35.54;;;21.48;;
54143;SDS011;40050;47.324;18.792;2024-03-02T01:32:59;39.18;;;22.07;;
54143;SDS011;40050;47.324;18.792;2024-03-02T01:35:00;34.25;;;21.11;;
54143;SDS011;40050;47.324;18.792;2024-03-02T01:37:01;35.16;;;21.60;;
54143;SDS011;40050;47.324;18.792;2024-03-02T01:39:02;35.17;;;21.70;;
54143;SDS011;40050;47.324;18.792;2024-03-02T01:41:04;37.36;;;20.92;;
54143;SDS011;40050;47.324;18.792;2024-03-02T01:43:05;34.28;;;20.92;;
54143;SDS011;40050;47.324;18.792;2024-03-02T01:45:06;37.46;;;20.82;;
54143;SDS011;40050;47.324;18.792;2024-03-02T01:47:06;34.30;;;21.02;;
54143;SDS011;40050;47.324;18.792;2024-03-02T01:49:07;34.35;;;20.45;;
54143;SDS011;40050;47.324;18.792;2024-03-02T01:51:08;37.58;;;21.43;;
54143;SDS011;40050;47.324;18.792;2024-03-02T01:53:09;36.48;;;20.16;;
54143;SDS011;40050;47.324;18.792;2024-03-02T01:55:10;34.30;;;20.85;;
54143;SDS011;40050;47.324;18.792;2024-03-02T01:57:11;36.76;;;20.65;;
54143;SDS011;40050;47.324;18.792;2024-03-02T01:59:12;41.59;;;21.63;;
54143;SDS011;40050;47.324;18.792;2024-03-02T02:01:13;40.32;;;21.26;;
54143;SDS011;40050;47.324;18.792;2024-03-02T02:03:14;40.30;;;21.55;;
54143;SDS011;40050;47.324;18.792;2024-03-02T02:05:15;39.07;;;21.44;;
54143;SDS011;40050;47.324;18.792;2024-03-02T02:07:16;36.51;;;20.65;;
54143;SDS011;40050;47.324;18.792;2024-03-02T02:09:17;35.23;;;21.05;;
54143;SDS011;40050;47.324;18.792;2024-03-02T02:11:18;39.21;;;21.04;;
54143;SDS011;40050;47.324;18.792;2024-03-02T02:13:19;37.33;;;20.65;;
54143;SDS011;40050;47.324;18.792;2024-03-02T02:15:23;36.41;;;20.46;;
54143;SDS011;40050;47.324;18.792;2024-03-02T02:17:21;37.05;;;20.36;;
54143;SDS011;40050;47.324;18.792;2024-03-02T02:19:22;35.03;;;19.87;;
54143;SDS011;40050;47.324;18.792;2024-03-02T02:21:23;33.11;;;19.57;;
54143;SDS011;40050;47.324;18.792;2024-03-02T02:23:30;33.48;;;20.26;;
54143;SDS011;40050;47.324;18.792;2024-03-02T02:25:31;35.19;;;20.55;;
54143;SDS011;40050;47.324;18.792;2024-03-02T02:27:32;35.17;;;19.47;;
54143;SDS011;40050;47.324;18.792;2024-03-02T02:29:33;32.53;;;19.96;;
54143;SDS011;40050;47.324;18.792;2024-03-02T02:31:37;34.16;;;19.66;;
54143;SDS011;40050;47.324;18.792;2024-03-02T02:33:38;32.78;;;20.05;;
54143;SDS011;40050;47.324;18.792;2024-03-02T02:35:36;31.98;;;19.27;;
54143;SDS011;40050;47.324;18.792;2024-03-02T02:37:37;33.23;;;19.36;;
54143;SDS011;40050;47.324;18.792;2024-03-02T02:39:40;34.95;;;19.66;;
54143;SDS011;40050;47.324;18.792;2024-03-02T02:41:41;37.21;;;20.53;;
54143;SDS011;40050;47.324;18.792;2024-03-02T02:43:42;34.75;;;19.95;;
54143;SDS011;40050;47.324;18.792;2024-03-02T02:45:43;33.48;;;20.24;;
54143;SDS011;40050;47.324;18.792;2024-03-02T02:47:44;34.50;;;19.66;;
54143;SDS011;40050;47.324;18.792;2024-03-02T02:49:44;32.76;;;19.56;;
54143;SDS011;40050;47.324;18.792;2024-03-02T02:51:45;33.86;;;20.14;;
54143;SDS011;40050;47.324;18.792;2024-03-02T02:53:46;36.58;;;20.63;;
54143;SDS011;40050;47.324;18.792;2024-03-02T02:55:47;34.57;;;19.26;;
54143;SDS011;40050;47.324;18.792;2024-03-02T02:57:48;33.54;;;19.35;;
54143;SDS011;40050;47.324;18.792;2024-03-02T02:59:49;34.36;;;19.94;;
54143;SDS011;40050;47.324;18.792;2024-03-02T03:01:51;33.09;;;18.86;;
54143;SDS011;40050;47.324;18.792;2024-03-02T03:03:51;33.31;;;19.95;;
54143;SDS011;40050;47.324;18.792;2024-03-02T03:05:52;32.64;;;19.35;;
54143;SDS011;40050;47.324;18.792;2024-03-02T03:07:52;32.89;;;19.45;;
54143;SDS011;40050;47.324;18.792;2024-03-02T03:09:53;32.24;;;19.05;;
54143;SDS011;40050;47.324;18.792;2024-03-02T03:11:54;35.12;;;19.54;;
54143;SDS011;40050;47.324;18.792;2024-03-02T03:13:55;36.49;;;19.25;;
54143;SDS011;40050;47.324;18.792;2024-03-02T03:15:56;34.98;;;19.45;;
54143;SDS011;40050;47.324;18.792;2024-03-02T03:17:57;35.02;;;19.65;;
54143;SDS011;40050;47.324;18.792;2024-03-02T03:19:58;33.15;;;19.36;;
54143;SDS011;40050;47.324;18.792;2024-03-02T03:21:59;34.24;;;19.66;;
54143;SDS011;40050;47.324;18.792;2024-03-02T03:24:00;36.35;;;20.54;;
54143;SDS011;40050;47.324;18.792;2024-03-02T03:26:01;38.25;;;19.95;;
54143;SDS011;40050;47.324;18.792;2024-03-02T03:28:02;36.93;;;20.24;;
54143;SDS011;40050;47.324;18.792;2024-03-02T03:30:03;33.22;;;19.46;;
54143;SDS011;40050;47.324;18.792;2024-03-02T03:32:03;33.58;;;19.46;;
54143;SDS011;40050;47.324;18.792;2024-03-02T03:34:04;34.96;;;19.27;;
54143;SDS011;40050;47.324;18.792;2024-03-02T03:36:05;34.22;;;20.53;;
54143;SDS011;40050;47.324;18.792;2024-03-02T03:38:06;34.41;;;20.14;;
54143;SDS011;40050;47.324;18.792;2024-03-02T03:40:07;33.67;;;20.34;;
54143;SDS011;40050;47.324;18.792;2024-03-02T03:42:08;35.21;;;20.53;;
54143;SDS011;40050;47.324;18.792;2024-03-02T03:44:09;34.78;;;20.44;;
54143;SDS011;40050;47.324;18.792;2024-03-02T03:46:10;34.73;;;20.74;;
54143;SDS011;40050;47.324;18.792;2024-03-02T03:48:11;37.09;;;21.03;;
54143;SDS011;40050;47.324;18.792;2024-03-02T03:50:11;37.97;;;21.03;;
54143;SDS011;40050;47.324;18.792;2024-03-02T03:52:12;37.00;;;22.29;;
54143;SDS011;40050;47.324;18.792;2024-03-02T03:54:13;35.26;;;21.21;;
54143;SDS011;40050;47.324;18.792;2024-03-02T03:56:14;35.02;;;21.49;;
54143;SDS011;40050;47.324;18.792;2024-03-02T03:58:15;38.50;;;21.77;;
54143;SDS011;40050;47.324;18.792;2024-03-02T04:00:16;36.63;;;21.66;;
54143;SDS011;40050;47.324;18.792;2024-03-02T04:02:17;38.29;;;22.23;;
54143;SDS011;40050;47.324;18.792;2024-03-02T04:04:18;36.82;;;22.03;;
54143;SDS011;40050;47.324;18.792;2024-03-02T04:06:19;39.36;;;21.34;;
54143;SDS011;40050;47.324;18.792;2024-03-02T04:08:19;37.07;;;22.50;;
54143;SDS011;40050;47.324;18.792;2024-03-02T04:10:20;37.56;;;21.71;;
54143;SDS011;40050;47.324;18.792;2024-03-02T04:12:21;38.85;;;22.38;;
54143;SDS011;40050;47.324;18.792;2024-03-02T04:14:22;37.62;;;21.70;;
54143;SDS011;40050;47.324;18.792;2024-03-02T04:16:23;40.00;;;22.18;;
54143;SDS011;40050;47.324;18.792;2024-03-02T04:18:24;36.11;;;21.88;;
54143;SDS011;40050;47.324;18.792;2024-03-02T04:20:25;41.63;;;22.94;;
54143;SDS011;40050;47.324;18.792;2024-03-02T04:22:26;37.72;;;21.88;;
54143;SDS011;40050;47.324;18.792;2024-03-02T04:24:26;38.26;;;21.97;;
54143;SDS011;40050;47.324;18.792;2024-03-02T04:26:27;39.00;;;21.86;;
54143;SDS011;40050;47.324;18.792;2024-03-02T04:28:28;44.25;;;23.22;;
54143;SDS011;40050;47.324;18.792;2024-03-02T04:30:29;38.74;;;22.14;;
54143;SDS011;40050;47.324;18.792;2024-03-02T04:32:30;38.86;;;22.22;;
54143;SDS011;40050;47.324;18.792;2024-03-02T04:34:31;39.41;;;22.03;;
54143;SDS011;40050;47.324;18.792;2024-03-02T04:36:32;42.70;;;21.93;;
54143;SDS011;40050;47.324;18.792;2024-03-02T04:38:33;40.56;;;21.84;;
54143;SDS011;40050;47.324;18.792;2024-03-02T04:40:34;38.25;;;22.52;;
54143;SDS011;40050;47.324;18.792;2024-03-02T04:42:35;39.77;;;21.93;;
54143;SDS011;40050;47.324;18.792;2024-03-02T04:44:36;41.51;;;23.09;;
54143;SDS011;40050;47.324;18.792;2024-03-02T04:46:37;38.34;;;22.03;;
54143;SDS011;40050;47.324;18.792;2024-03-02T04:48:38;39.80;;;21.94;;
54143;SDS011;40050;47.324;18.792;2024-03-02T04:50:39;41.77;;;22.43;;
54143;SDS011;40050;47.324;18.792;2024-03-02T04:52:40;38.79;;;22.52;;
54143;SDS011;40050;47.324;18.792;2024-03-02T04:54:41;38.78;;;22.03;;
54143;SDS011;40050;47.324;18.792;2024-03-02T04:56:41;37.63;;;22.90;;
54143;SDS011;40050;47.324;18.792;2024-03-02T04:58:42;37.05;;;21.83;;
54143;SDS011;40050;47.324;18.792;2024-03-02T05:00:43;42.82;;;22.89;;
54143;SDS011;40050;47.324;18.792;2024-03-02T05:02:44;41.33;;;23.09;;
54143;SDS011;40050;47.324;18.792;2024-03-02T05:04:45;40.04;;;22.59;;
54143;SDS011;40050;47.324;18.792;2024-03-02T05:06:46;38.86;;;22.30;;
54143;SDS011;40050;47.324;18.792;2024-03-02T05:08:47;41.13;;;22.68;;
54143;SDS011;40050;47.324;18.792;2024-03-02T05:10:48;39.56;;;23.82;;
54143;SDS011;40050;47.324;18.792;2024-03-02T05:12:49;37.20;;;21.87;;
54143;SDS011;40050;47.324;18.792;2024-03-02T05:14:50;40.17;;;23.51;;
54143;SDS011;40050;47.324;18.792;2024-03-02T05:16:51;40.92;;;23.02;;
54143;SDS011;40050;47.324;18.792;2024-03-02T05:18:51;44.18;;;24.83;;
54143;SDS011;40050;47.324;18.792;2024-03-02T05:20:52;42.20;;;23.01;;
54143;SDS011;40050;47.324;18.792;2024-03-02T05:22:53;42.98;;;22.50;;
54143;SDS011;40050;47.324;18.792;2024-03-02T05:24:54;40.59;;;23.95;;
54143;SDS011;40050;47.324;18.792;2024-03-02T05:26:55;43.30;;;23.75;;
54143;SDS011;40050;47.324;18.792;2024-03-02T05:28:56;42.31;;;23.26;;
54143;SDS011;40050;47.324;18.792;2024-03-02T05:30:57;43.87;;;24.44;;
54143;SDS011;40050;47.324;18.792;2024-03-02T05:32:58;43.38;;;23.67;;
54143;SDS011;40050;47.324;18.792;2024-03-02T05:34:59;40.66;;;22.71;;
54143;SDS011;40050;47.324;18.792;2024-03-02T05:36:59;38.91;;;22.90;;
54143;SDS011;40050;47.324;18.792;2024-03-02T05:39:00;41.33;;;22.91;;
54143;SDS011;40050;47.324;18.792;2024-03-02T05:41:01;43.26;;;23.98;;
54143;SDS011;40050;47.324;18.792;2024-03-02T05:43:02;39.32;;;22.82;;
54143;SDS011;40050;47.324;18.792;2024-03-02T05:45:03;39.38;;;23.10;;
54143;SDS011;40050;47.324;18.792;2024-03-02T05:47:04;39.20;;;22.33;;
54143;SDS011;40050;47.324;18.792;2024-03-02T05:49:05;39.41;;;22.92;;
54143;SDS011;40050;47.324;18.792;2024-03-02T05:51:06;41.16;;;23.40;;
54143;SDS011;40050;47.324;18.792;2024-03-02T05:53:07;39.66;;;22.43;;
54143;SDS011;40050;47.324;18.792;2024-03-02T05:55:08;42.20;;;23.20;;
54143;SDS011;40050;47.324;18.792;2024-03-02T05:57:09;40.76;;;23.77;;
54143;SDS011;40050;47.324;18.792;2024-03-02T05:59:10;36.85;;;22.02;;
54143;SDS011;40050;47.324;18.792;2024-03-02T06:01:10;43.45;;;23.67;;
54143;SDS011;40050;47.324;18.792;2024-03-02T06:03:11;44.54;;;23.66;;
54143;SDS011;40050;47.324;18.792;2024-03-02T06:05:12;46.47;;;23.46;;
54143;SDS011;40050;47.324;18.792;2024-03-02T06:07:13;41.68;;;23.36;;
54143;SDS011;40050;47.324;18.792;2024-03-02T06:09:14;43.14;;;23.25;;
54143;SDS011;40050;47.324;18.792;2024-03-02T06:11:15;41.54;;;23.54;;
54143;SDS011;40050;47.324;18.792;2024-03-02T06:13:16;41.07;;;22.85;;
54143;SDS011;40050;47.324;18.792;2024-03-02T06:15:17;43.04;;;23.42;;
54143;SDS011;40050;47.324;18.792;2024-03-02T06:17:18;40.45;;;22.93;;
54143;SDS011;40050;47.324;18.792;2024-03-02T06:19:18;42.08;;;23.31;;
54143;SDS011;40050;47.324;18.792;2024-03-02T06:21:20;44.30;;;24.45;;
54143;SDS011;40050;47.324;18.792;2024-03-02T06:23:20;42.66;;;23.37;;
54143;SDS011;40050;47.324;18.792;2024-03-02T06:25:21;45.64;;;23.84;;
54143;SDS011;40050;47.324;18.792;2024-03-02T06:27:22;41.46;;;23.84;;
54143;SDS011;40050;47.324;18.792;2024-03-02T06:29:23;43.52;;;24.50;;
54143;SDS011;40050;47.324;18.792;2024-03-02T06:31:24;41.63;;;23.62;;
54143;SDS011;40050;47.324;18.792;2024-03-02T06:33:25;43.44;;;24.48;;
54143;SDS011;40050;47.324;18.792;2024-03-02T06:35:26;40.20;;;24.00;;
54143;SDS011;40050;47.324;18.792;2024-03-02T06:37:27;42.16;;;24.76;;
54143;SDS011;40050;47.324;18.792;2024-03-02T06:39:28;40.72;;;23.78;;
54143;SDS011;40050;47.324;18.792;2024-03-02T06:41:29;43.11;;;23.68;;
54143;SDS011;40050;47.324;18.792;2024-03-02T06:43:30;42.91;;;25.11;;
54143;SDS011;40050;47.324;18.792;2024-03-02T06:45:31;44.99;;;25.30;;
54143;SDS011;40050;47.324;18.792;2024-03-02T06:47:32;43.36;;;24.92;;
54143;SDS011;40050;47.324;18.792;2024-03-02T06:49:32;43.48;;;25.10;;
54143;SDS011;40050;47.324;18.792;2024-03-02T06:51:33;42.63;;;24.62;;
54143;SDS011;40050;47.324;18.792;2024-03-02T06:53:34;42.87;;;24.52;;
54143;SDS011;40050;47.324;18.792;2024-03-02T06:55:36;43.08;;;24.89;;
54143;SDS011;40050;47.324;18.792;2024-03-02T06:57:37;43.05;;;24.33;;
54143;SDS011;40050;47.324;18.792;2024-03-02T06:59:38;47.76;;;26.07;;
54143;SDS011;40050;47.324;18.792;2024-03-02T07:01:38;45.74;;;25.10;;
54143;SDS011;40050;47.324;18.792;2024-03-02T07:03:39;46.16;;;25.58;;
54143;SDS011;40050;47.324;18.792;2024-03-02T07:05:41;45.80;;;24.81;;
54143;SDS011;40050;47.324;18.792;2024-03-02T07:07:42;45.77;;;25.19;;
54143;SDS011;40050;47.324;18.792;2024-03-02T07:09:43;45.09;;;24.61;;
54143;SDS011;40050;47.324;18.792;2024-03-02T07:11:43;47.52;;;25.55;;
54143;SDS011;40050;47.324;18.792;2024-03-02T07:13:44;48.28;;;25.65;;
54143;SDS011;40050;47.324;18.792;2024-03-02T07:15:45;47.10;;;25.56;;
54143;SDS011;40050;47.324;18.792;2024-03-02T07:17:46;43.13;;;25.94;;
54143;SDS011;40050;47.324;18.792;2024-03-02T07:19:47;50.10;;;25.94;;
54143;SDS011;40050;47.324;18.792;2024-03-02T07:21:48;45.60;;;26.22;;
54143;SDS011;40050;47.324;18.792;2024-03-02T07:23:49;45.31;;;25.90;;
54143;SDS011;40050;47.324;18.792;2024-03-02T07:25:50;45.82;;;25.33;;
54143;SDS011;40050;47.324;18.792;2024-03-02T07:27:51;44.00;;;25.51;;
54143;SDS011;40050;47.324;18.792;2024-03-02T07:29:52;44.45;;;25.42;;
54143;SDS011;40050;47.324;18.792;2024-03-02T07:31:53;46.86;;;26.09;;
54143;SDS011;40050;47.324;18.792;2024-03-02T07:33:53;46.33;;;26.47;;
54143;SDS011;40050;47.324;18.792;2024-03-02T07:35:54;48.55;;;26.66;;
54143;SDS011;40050;47.324;18.792;2024-03-02T07:37:55;47.05;;;27.41;;
54143;SDS011;40050;47.324;18.792;2024-03-02T07:39:56;46.42;;;26.28;;
54143;SDS011;40050;47.324;18.792;2024-03-02T07:41:57;45.60;;;25.60;;
54143;SDS011;40050;47.324;18.792;2024-03-02T07:43:58;47.77;;;26.16;;
54143;SDS011;40050;47.324;18.792;2024-03-02T07:45:59;47.96;;;25.88;;
54143;SDS011;40050;47.324;18.792;2024-03-02T07:48:00;49.71;;;26.53;;
54143;SDS011;40050;47.324;18.792;2024-03-02T07:50:01;43.65;;;25.49;;
54143;SDS011;40050;47.324;18.792;2024-03-02T07:52:02;47.45;;;27.02;;
54143;SDS011;40050;47.324;18.792;2024-03-02T07:54:03;44.76;;;25.79;;
54143;SDS011;40050;47.324;18.792;2024-03-02T07:56:04;45.39;;;25.66;;
54143;SDS011;40050;47.324;18.792;2024-03-02T07:58:04;47.79;;;26.04;;
54143;SDS011;40050;47.324;18.792;2024-03-02T08:00:06;44.69;;;25.87;;
54143;SDS011;40050;47.324;18.792;2024-03-02T08:02:06;47.15;;;26.46;;
54143;SDS011;40050;47.324;18.792;2024-03-02T08:04:08;47.89;;;26.19;;
54143;SDS011;40050;47.324;18.792;2024-03-02T08:06:09;47.16;;;27.59;;
54143;SDS011;40050;47.324;18.792;2024-03-02T08:08:10;46.36;;;26.41;;
54143;SDS011;40050;47.324;18.792;2024-03-02T08:10:11;45.25;;;25.79;;
54143;SDS011;40050;47.324;18.792;2024-03-02T08:12:12;44.55;;;26.10;;
54143;SDS011;40050;47.324;18.792;2024-03-02T08:14:13;45.16;;;27.27;;
54143;SDS011;40050;47.324;18.792;2024-03-02T08:16:14;44.30;;;26.38;;
54143;SDS011;40050;47.324;18.792;2024-03-02T08:18:15;46.50;;;26.45;;
54143;SDS011;40050;47.324;18.792;2024-03-02T08:20:16;45.79;;;27.08;;
54143;SDS011;40050;47.324;18.792;2024-03-02T08:22:17;47.55;;;26.91;;
54143;SDS011;40050;47.324;18.792;2024-03-02T08:24:18;46.75;;;27.02;;
54143;SDS011;40050;47.324;18.792;2024-03-02T08:26:19;45.71;;;26.85;;
54143;SDS011;40050;47.324;18.792;2024-03-02T08:28:19;49.89;;;27.71;;
54143;SDS011;40050;47.324;18.792;2024-03-02T08:30:20;45.80;;;27.06;;
54143;SDS011;40050;47.324;18.792;2024-03-02T08:32:21;47.35;;;26.85;;
54143;SDS011;40050;47.324;18.792;2024-03-02T08:34:22;46.37;;;26.27;;
54143;SDS011;40050;47.324;18.792;2024-03-02T08:36:23;47.59;;;25.97;;
54143;SDS011;40050;47.324;18.792;2024-03-02T08:38:24;47.58;;;27.11;;
54143;SDS011;40050;47.324;18.792;2024-03-02T08:40:25;48.76;;;27.37;;
54143;SDS011;40050;47.324;18.792;2024-03-02T08:42:26;48.07;;;28.01;;
54143;SDS011;40050;47.324;18.792;2024-03-02T08:44:27;41.68;;;25.74;;
54143;SDS011;40050;47.324;18.792;2024-03-02T08:46:28;44.14;;;26.60;;
54143;SDS011;40050;47.324;18.792;2024-03-02T08:48:29;44.22;;;26.69;;
54143;SDS011;40050;47.324;18.792;2024-03-02T08:50:30;44.18;;;25.78;;
54143;SDS011;40050;47.324;18.792;2024-03-02T08:52:31;43.36;;;25.67;;
54143;SDS011;40050;47.324;18.792;2024-03-02T08:54:32;43.87;;;26.50;;
54143;SDS011;40050;47.324;18.792;2024-03-02T08:56:33;44.00;;;26.84;;
54143;SDS011;40050;47.324;18.792;2024-03-02T08:58:34;45.05;;;26.21;;
54143;SDS011;40050;47.324;18.792;2024-03-02T09:00:35;43.39;;;25.18;;
54143;SDS011;40050;47.324;18.792;2024-03-02T09:02:36;42.62;;;26.03;;
54143;SDS011;40050;47.324;18.792;2024-03-02T09:04:37;42.26;;;25.83;;
54143;SDS011;40050;47.324;18.792;2024-03-02T09:06:38;40.69;;;24.63;;
54143;SDS011;40050;47.324;18.792;2024-03-02T09:08:39;41.00;;;25.32;;
54143;SDS011;40050;47.324;18.792;2024-03-02T09:10:41;41.84;;;26.48;;
54143;SDS011;40050;47.324;18.792;2024-03-02T09:12:45;49.53;;;32.52;;
54143;SDS011;40050;47.324;18.792;2024-03-02T09:14:42;45.99;;;29.05;;
54143;SDS011;40050;47.324;18.792;2024-03-02T09:16:43;41.86;;;26.01;;
54143;SDS011;40050;47.324;18.792;2024-03-02T09:18:44;46.46;;;28.46;;
54143;SDS011;40050;47.324;18.792;2024-03-02T09:20:45;43.35;;;27.69;;
54143;SDS011;40050;47.324;18.792;2024-03-02T09:22:46;39.99;;;25.03;;
54143;SDS011;40050;47.324;18.792;2024-03-02T09:24:47;39.73;;;24.46;;
54143;SDS011;40050;47.324;18.792;2024-03-02T09:26:48;41.24;;;25.50;;
54143;SDS011;40050;47.324;18.792;2024-03-02T09:28:49;42.20;;;24.56;;
54143;SDS011;40050;47.324;18.792;2024-03-02T09:30:50;38.29;;;23.25;;
54143;SDS011;40050;47.324;18.792;2024-03-02T09:32:51;41.00;;;25.84;;
54143;SDS011;40050;47.324;18.792;2024-03-02T09:34:52;42.88;;;25.94;;
54143;SDS011;40050;47.324;18.792;2024-03-02T09:36:55;42.82;;;26.57;;
54143;SDS011;40050;47.324;18.792;2024-03-02T09:38:55;40.81;;;26.64;;
54143;SDS011;40050;47.324;18.792;2024-03-02T09:40:56;42.41;;;25.81;;
54143;SDS011;40050;47.324;18.792;2024-03-02T09:42:59;42.54;;;26.44;;
54143;SDS011;40050;47.324;18.792;2024-03-02T09:44:57;37.18;;;23.08;;
54143;SDS011;40050;47.324;18.792;2024-03-02T09:46:58;43.08;;;24.66;;
54143;SDS011;40050;47.324;18.792;2024-03-02T09:48:59;37.68;;;23.60;;
54143;SDS011;40050;47.324;18.792;2024-03-02T09:51:00;39.08;;;23.43;;
54143;SDS011;40050;47.324;18.792;2024-03-02T09:53:01;38.34;;;23.79;;
54143;SDS011;40050;47.324;18.792;2024-03-02T09:55:02;40.38;;;23.98;;
54143;SDS011;40050;47.324;18.792;2024-03-02T09:57:03;36.58;;;22.46;;
54143;SDS011;40050;47.324;18.792;2024-03-02T09:59:04;37.91;;;23.48;;
54143;SDS011;40050;47.324;18.792;2024-03-02T10:01:05;36.85;;;23.08;;
54143;SDS011;40050;47.324;18.792;2024-03-02T10:03:11;35.40;;;22.25;;
54143;SDS011;40050;47.324;18.792;2024-03-02T10:05:07;32.46;;;21.40;;
54143;SDS011;40050;47.324;18.792;2024-03-02T10:07:14;34.18;;;21.19;;
54143;SDS011;40050;47.324;18.792;2024-03-02T10:09:22;31.36;;;20.69;;
54143;SDS011;40050;47.324;18.792;2024-03-02T10:11:29;31.16;;;19.75;;
54143;SDS011;40050;47.324;18.792;2024-03-02T10:13:16;31.95;;;19.50;;
54143;SDS011;40050;47.324;18.792;2024-03-02T10:15:23;30.99;;;20.85;;
54143;SDS011;40050;47.324;18.792;2024-03-02T10:17:19;31.85;;;21.62;;
54143;SDS011;40050;47.324;18.792;2024-03-02T10:19:20;35.77;;;24.70;;
54143;SDS011;40050;47.324;18.792;2024-03-02T10:21:20;31.50;;;20.51;;
54143;SDS011;40050;47.324;18.792;2024-03-02T10:23:21;31.22;;;20.15;;
54143;SDS011;40050;47.324;18.792;2024-03-02T10:25:32;33.02;;;23.62;;
54143;SDS011;40050;47.324;18.792;2024-03-02T10:27:25;30.83;;;20.08;;
54143;SDS011;40050;47.324;18.792;2024-03-02T10:29:24;29.30;;;18.78;;
54143;SDS011;40050;47.324;18.792;2024-03-02T10:31:26;28.49;;;18.88;;
54143;SDS011;40050;47.324;18.792;2024-03-02T10:33:27;25.89;;;17.66;;
54143;SDS011;40050;47.324;18.792;2024-03-02T10:35:29;27.25;;;17.59;;
54143;SDS011;40050;47.324;18.792;2024-03-02T10:37:30;26.28;;;18.05;;
54143;SDS011;40050;47.324;18.792;2024-03-02T10:39:33;26.06;;;17.37;;
54143;SDS011;40050;47.324;18.792;2024-03-02T10:41:34;27.62;;;17.89;;
54143;SDS011;40050;47.324;18.792;2024-03-02T10:43:36;24.35;;;16.63;;
54143;SDS011;40050;47.324;18.792;2024-03-02T10:45:37;23.43;;;16.71;;
54143;SDS011;40050;47.324;18.792;2024-03-02T10:47:40;22.48;;;15.94;;
54143;SDS011;40050;47.324;18.792;2024-03-02T10:49:41;24.79;;;16.90;;
54143;SDS011;40050;47.324;18.792;2024-03-02T10:51:41;21.03;;;15.68;;
54143;SDS011;40050;47.324;18.792;2024-03-02T10:53:42;24.64;;;16.43;;
54143;SDS011;40050;47.324;18.792;2024-03-02T10:55:43;20.83;;;14.25;;
54143;SDS011;40050;47.324;18.792;2024-03-02T10:57:54;20.92;;;14.06;;
54143;SDS011;40050;47.324;18.792;2024-03-02T11:00:01;21.19;;;15.33;;
54143;SDS011;40050;47.324;18.792;2024-03-02T11:02:03;19.58;;;13.90;;
54143;SDS011;40050;47.324;18.792;2024-03-02T11:04:08;22.07;;;14.39;;
54143;SDS011;40050;47.324;18.792;2024-03-02T11:06:08;22.55;;;15.52;;
54143;SDS011;40050;47.324;18.792;2024-03-02T11:08:12;21.50;;;15.12;;
54143;SDS011;40050;47.324;18.792;2024-03-02T11:10:12;20.96;;;14.42;;
54143;SDS011;40050;47.324;18.792;2024-03-02T11:12:33;18.44;;;13.58;;
54143;SDS011;40050;47.324;18.792;2024-03-02T11:14:21;18.08;;;12.64;;
54143;SDS011;40050;47.324;18.792;2024-03-02T11:16:35;18.27;;;13.29;;
54143;SDS011;40050;47.324;18.792;2024-03-02T11:18:28;18.06;;;12.86;;
54143;SDS011;40050;47.324;18.792;2024-03-02T11:20:29;16.86;;;12.98;;
54143;SDS011;40050;47.324;18.792;2024-03-02T11:22:30;20.35;;;14.41;;
54143;SDS011;40050;47.324;18.792;2024-03-02T11:24:31;24.11;;;16.76;;
54143;SDS011;40050;47.324;18.792;2024-03-02T11:26:47;22.03;;;16.18;;
54143;SDS011;40050;47.324;18.792;2024-03-02T11:29:00;23.31;;;15.89;;
54143;SDS011;40050;47.324;18.792;2024-03-02T11:31:13;19.69;;;14.26;;
54143;SDS011;40050;47.324;18.792;2024-03-02T11:33:25;20.21;;;14.17;;
54143;SDS011;40050;47.324;18.792;2024-03-02T11:35:27;16.64;;;12.30;;
54143;SDS011;40050;47.324;18.792;2024-03-02T11:37:28;17.69;;;12.88;;
54143;SDS011;40050;47.324;18.792;2024-03-02T11:39:29;17.72;;;12.83;;
54143;SDS011;40050;47.324;18.792;2024-03-02T11:41:33;17.88;;;12.95;;